Terminal Aerodrome Forecast
Issued by NWS New Orleans/Baton Rouge, LA

Home | Current Version | Previous Version | Text Only | Print | Product List | Glossary On
Versions: 1 2 3 4 5 6 7 8 9 10 11 12 13 14 15 16 17 18 19 20 21 22 23 24 25 26 27 28 29 30 31 32 33 34
000
FTUS44 KLIX 261139
TAFNEW
TAF
KNEW 261139Z 2612/2712 36020KT 5SM -RA OVC060
     FM261400 05007KT P6SM SCT020 OVC050
     FM261800 16012KT P6SM VCTS SCT030CB OVC070
     FM270000 15010KT P6SM BKN110
     FM271000 14005KT P6SM BKN025=

USA.gov is the U.S. government's official web portal to all federal, state and local government web resources and services.